sensor_id;sensor_type;location;lat;lon;timestamp;temperature;humidity
7970;DHT22;4030;52.362;9.206;2023-12-14T00:01:21;7.30;99.90
7970;DHT22;4030;52.362;9.206;2023-12-14T00:03:47;7.30;99.90
7970;DHT22;4030;52.362;9.206;2023-12-14T00:06:13;7.30;99.90
7970;DHT22;4030;52.362;9.206;2023-12-14T00:08:40;7.30;99.90
7970;DHT22;4030;52.362;9.206;2023-12-14T00:11:10;7.30;99.90
7970;DHT22;4030;52.362;9.206;2023-12-14T00:13:37;7.30;99.90
7970;DHT22;4030;52.362;9.206;2023-12-14T00:16:03;7.30;99.90
7970;DHT22;4030;52.362;9.206;2023-12-14T00:18:29;7.20;99.90
7970;DHT22;4030;52.362;9.206;2023-12-14T00:20:55;7.20;99.90
7970;DHT22;4030;52.362;9.206;2023-12-14T00:23:21;7.20;99.90
7970;DHT22;4030;52.362;9.206;2023-12-14T00:25:47;7.20;99.90
7970;DHT22;4030;52.362;9.206;2023-12-14T00:28:13;7.20;99.90
7970;DHT22;4030;52.362;9.206;2023-12-14T00:30:39;7.20;99.90
7970;DHT22;4030;52.362;9.206;2023-12-14T00:33:05;7.20;99.90
7970;DHT22;4030;52.362;9.206;2023-12-14T00:35:30;7.20;99.90
7970;DHT22;4030;52.362;9.206;2023-12-14T00:37:56;7.10;99.90
7970;DHT22;4030;52.362;9.206;2023-12-14T00:40:22;7.20;99.90
7970;DHT22;4030;52.362;9.206;2023-12-14T00:42:47;7.20;99.90
7970;DHT22;4030;52.362;9.206;2023-12-14T00:45:13;7.20;99.90
7970;DHT22;4030;52.362;9.206;2023-12-14T00:47:39;7.20;99.90
7970;DHT22;4030;52.362;9.206;2023-12-14T00:50:05;7.10;99.90
7970;DHT22;4030;52.362;9.206;2023-12-14T00:52:31;7.10;99.90
7970;DHT22;4030;52.362;9.206;2023-12-14T00:54:56;7.10;99.90
7970;DHT22;4030;52.362;9.206;2023-12-14T00:57:22;7.20;99.90
7970;DHT22;4030;52.362;9.206;2023-12-14T00:59:48;7.10;99.90
7970;DHT22;4030;52.362;9.206;2023-12-14T01:02:13;7.10;99.90
7970;DHT22;4030;52.362;9.206;2023-12-14T01:04:39;7.10;99.90
7970;DHT22;4030;52.362;9.206;2023-12-14T01:07:04;7.10;99.90
7970;DHT22;4030;52.362;9.206;2023-12-14T01:09:30;7.10;99.90
7970;DHT22;4030;52.362;9.206;2023-12-14T01:11:56;7.10;99.90
7970;DHT22;4030;52.362;9.206;2023-12-14T01:14:22;7.10;99.90
7970;DHT22;4030;52.362;9.206;2023-12-14T01:16:48;7.10;99.90
7970;DHT22;4030;52.362;9.206;2023-12-14T01:19:13;7.10;99.90
7970;DHT22;4030;52.362;9.206;2023-12-14T01:21:39;7.10;99.90
7970;DHT22;4030;52.362;9.206;2023-12-14T01:24:05;7.00;99.90
7970;DHT22;4030;52.362;9.206;2023-12-14T01:26:31;7.00;99.90
7970;DHT22;4030;52.362;9.206;2023-12-14T01:28:56;7.00;99.90
7970;DHT22;4030;52.362;9.206;2023-12-14T01:31:24;4.90;99.90
7970;DHT22;4030;52.362;9.206;2023-12-14T01:33:50;7.00;99.90
7970;DHT22;4030;52.362;9.206;2023-12-14T01:36:26;7.00;99.90
7970;DHT22;4030;52.362;9.206;2023-12-14T01:38:52;7.00;99.90
7970;DHT22;4030;52.362;9.206;2023-12-14T01:41:18;7.00;99.90
7970;DHT22;4030;52.362;9.206;2023-12-14T01:43:44;7.00;99.90
7970;DHT22;4030;52.362;9.206;2023-12-14T01:46:10;7.00;99.90
7970;DHT22;4030;52.362;9.206;2023-12-14T01:48:36;7.00;99.90
7970;DHT22;4030;52.362;9.206;2023-12-14T01:51:02;7.00;99.90
7970;DHT22;4030;52.362;9.206;2023-12-14T01:53:28;7.00;99.90
7970;DHT22;4030;52.362;9.206;2023-12-14T01:55:54;7.00;99.90
7970;DHT22;4030;52.362;9.206;2023-12-14T01:58:20;6.90;99.90
7970;DHT22;4030;52.362;9.206;2023-12-14T02:03:23;6.90;99.90
7970;DHT22;4030;52.362;9.206;2023-12-14T02:05:49;6.90;99.90
7970;DHT22;4030;52.362;9.206;2023-12-14T02:08:14;6.90;99.90
7970;DHT22;4030;52.362;9.206;2023-12-14T02:10:40;6.90;99.90
7970;DHT22;4030;52.362;9.206;2023-12-14T02:13:06;6.90;99.90
7970;DHT22;4030;52.362;9.206;2023-12-14T02:15:32;6.90;99.90
7970;DHT22;4030;52.362;9.206;2023-12-14T02:17:58;6.90;99.90
7970;DHT22;4030;52.362;9.206;2023-12-14T02:20:24;6.90;99.90
7970;DHT22;4030;52.362;9.206;2023-12-14T02:22:54;6.90;99.90
7970;DHT22;4030;52.362;9.206;2023-12-14T02:25:21;6.90;99.90
7970;DHT22;4030;52.362;9.206;2023-12-14T02:27:48;6.90;99.90
7970;DHT22;4030;52.362;9.206;2023-12-14T02:30:15;6.90;99.90
7970;DHT22;4030;52.362;9.206;2023-12-14T02:32:41;6.90;99.90
7970;DHT22;4030;52.362;9.206;2023-12-14T02:35:07;6.90;99.90
7970;DHT22;4030;52.362;9.206;2023-12-14T02:37:34;6.90;99.90
7970;DHT22;4030;52.362;9.206;2023-12-14T02:40:02;6.80;99.90
7970;DHT22;4030;52.362;9.206;2023-12-14T02:42:29;6.80;99.90
7970;DHT22;4030;52.362;9.206;2023-12-14T02:44:55;6.80;99.90
7970;DHT22;4030;52.362;9.206;2023-12-14T02:47:21;6.80;99.90
7970;DHT22;4030;52.362;9.206;2023-12-14T02:49:47;6.90;99.90
7970;DHT22;4030;52.362;9.206;2023-12-14T02:52:13;6.80;99.90
7970;DHT22;4030;52.362;9.206;2023-12-14T02:54:39;6.80;99.90
7970;DHT22;4030;52.362;9.206;2023-12-14T02:57:05;6.80;99.90
7970;DHT22;4030;52.362;9.206;2023-12-14T02:59:31;6.80;99.90
7970;DHT22;4030;52.362;9.206;2023-12-14T03:01:56;6.80;99.90
7970;DHT22;4030;52.362;9.206;2023-12-14T03:04:22;6.80;99.90
7970;DHT22;4030;52.362;9.206;2023-12-14T03:06:48;6.80;99.90
7970;DHT22;4030;52.362;9.206;2023-12-14T03:09:13;6.80;99.90
7970;DHT22;4030;52.362;9.206;2023-12-14T03:11:39;6.80;99.90
7970;DHT22;4030;52.362;9.206;2023-12-14T03:14:05;6.80;99.90
7970;DHT22;4030;52.362;9.206;2023-12-14T03:16:31;6.80;99.90
7970;DHT22;4030;52.362;9.206;2023-12-14T03:18:57;6.80;99.90
7970;DHT22;4030;52.362;9.206;2023-12-14T03:21:23;6.80;99.90
7970;DHT22;4030;52.362;9.206;2023-12-14T03:23:52;6.80;99.90
7970;DHT22;4030;52.362;9.206;2023-12-14T03:26:18;6.80;99.90
7970;DHT22;4030;52.362;9.206;2023-12-14T03:28:43;6.80;99.90
7970;DHT22;4030;52.362;9.206;2023-12-14T03:31:12;6.80;99.90
7970;DHT22;4030;52.362;9.206;2023-12-14T03:33:39;6.80;99.90
7970;DHT22;4030;52.362;9.206;2023-12-14T03:36:05;6.80;99.90
7970;DHT22;4030;52.362;9.206;2023-12-14T03:38:32;6.70;99.90
7970;DHT22;4030;52.362;9.206;2023-12-14T03:40:58;6.70;99.90
7970;DHT22;4030;52.362;9.206;2023-12-14T03:43:23;6.70;99.90
7970;DHT22;4030;52.362;9.206;2023-12-14T03:45:49;6.70;99.90
7970;DHT22;4030;52.362;9.206;2023-12-14T03:48:15;6.70;99.90
7970;DHT22;4030;52.362;9.206;2023-12-14T03:50:41;6.70;99.90
7970;DHT22;4030;52.362;9.206;2023-12-14T03:53:07;6.70;99.90
7970;DHT22;4030;52.362;9.206;2023-12-14T03:55:33;6.70;99.90
7970;DHT22;4030;52.362;9.206;2023-12-14T03:57:59;6.70;99.90
7970;DHT22;4030;52.362;9.206;2023-12-14T04:00:24;6.70;99.90
7970;DHT22;4030;52.362;9.206;2023-12-14T04:02:50;6.70;99.90
7970;DHT22;4030;52.362;9.206;2023-12-14T04:05:16;6.70;99.90
7970;DHT22;4030;52.362;9.206;2023-12-14T04:07:42;6.70;99.90
7970;DHT22;4030;52.362;9.206;2023-12-14T04:10:12;6.70;99.90
7970;DHT22;4030;52.362;9.206;2023-12-14T04:12:39;6.70;99.90
7970;DHT22;4030;52.362;9.206;2023-12-14T04:15:05;6.70;99.90
7970;DHT22;4030;52.362;9.206;2023-12-14T04:17:32;6.70;99.90
7970;DHT22;4030;52.362;9.206;2023-12-14T04:19:58;6.70;99.90
7970;DHT22;4030;52.362;9.206;2023-12-14T04:22:24;6.60;99.90
7970;DHT22;4030;52.362;9.206;2023-12-14T04:24:50;6.70;99.90
7970;DHT22;4030;52.362;9.206;2023-12-14T04:27:16;6.60;99.90
7970;DHT22;4030;52.362;9.206;2023-12-14T04:29:42;6.60;99.90
7970;DHT22;4030;52.362;9.206;2023-12-14T04:32:08;6.60;99.90
7970;DHT22;4030;52.362;9.206;2023-12-14T04:34:34;6.60;99.90
7970;DHT22;4030;52.362;9.206;2023-12-14T04:37:00;6.60;99.90
7970;DHT22;4030;52.362;9.206;2023-12-14T04:39:26;6.60;99.90
7970;DHT22;4030;52.362;9.206;2023-12-14T04:41:52;6.60;99.90
7970;DHT22;4030;52.362;9.206;2023-12-14T04:44:21;6.60;99.90
7970;DHT22;4030;52.362;9.206;2023-12-14T04:46:50;6.60;99.90
7970;DHT22;4030;52.362;9.206;2023-12-14T04:49:16;6.60;99.90
7970;DHT22;4030;52.362;9.206;2023-12-14T04:51:42;6.60;99.90
7970;DHT22;4030;52.362;9.206;2023-12-14T04:54:08;6.60;99.90
7970;DHT22;4030;52.362;9.206;2023-12-14T04:56:34;6.60;99.90
7970;DHT22;4030;52.362;9.206;2023-12-14T04:59:00;6.60;99.90
7970;DHT22;4030;52.362;9.206;2023-12-14T05:01:26;6.50;99.90
7970;DHT22;4030;52.362;9.206;2023-12-14T05:03:52;6.60;99.90
7970;DHT22;4030;52.362;9.206;2023-12-14T05:06:18;6.50;99.90
7970;DHT22;4030;52.362;9.206;2023-12-14T05:08:44;6.50;99.90
7970;DHT22;4030;52.362;9.206;2023-12-14T05:11:10;6.50;99.90
7970;DHT22;4030;52.362;9.206;2023-12-14T05:13:37;6.50;99.90
7970;DHT22;4030;52.362;9.206;2023-12-14T05:16:03;6.50;99.90
7970;DHT22;4030;52.362;9.206;2023-12-14T05:18:29;6.50;99.90
7970;DHT22;4030;52.362;9.206;2023-12-14T05:20:55;6.50;99.90
7970;DHT22;4030;52.362;9.206;2023-12-14T05:23:21;6.50;99.90
7970;DHT22;4030;52.362;9.206;2023-12-14T05:25:46;6.50;99.90
7970;DHT22;4030;52.362;9.206;2023-12-14T05:28:13;6.50;99.90
7970;DHT22;4030;52.362;9.206;2023-12-14T05:30:38;6.50;99.90
7970;DHT22;4030;52.362;9.206;2023-12-14T05:33:04;6.50;99.90
7970;DHT22;4030;52.362;9.206;2023-12-14T05:35:30;6.50;99.90
7970;DHT22;4030;52.362;9.206;2023-12-14T05:37:56;6.50;99.90
7970;DHT22;4030;52.362;9.206;2023-12-14T05:40:22;6.50;99.90
7970;DHT22;4030;52.362;9.206;2023-12-14T05:42:47;6.50;99.90
7970;DHT22;4030;52.362;9.206;2023-12-14T05:45:13;6.50;99.90
7970;DHT22;4030;52.362;9.206;2023-12-14T05:47:39;6.50;99.90
7970;DHT22;4030;52.362;9.206;2023-12-14T05:50:07;6.50;99.90
7970;DHT22;4030;52.362;9.206;2023-12-14T05:52:35;6.50;99.90
7970;DHT22;4030;52.362;9.206;2023-12-14T05:55:01;6.50;99.90
7970;DHT22;4030;52.362;9.206;2023-12-14T05:57:27;6.50;99.90
7970;DHT22;4030;52.362;9.206;2023-12-14T05:59:53;6.50;99.90
7970;DHT22;4030;52.362;9.206;2023-12-14T06:02:18;6.50;99.90
7970;DHT22;4030;52.362;9.206;2023-12-14T06:04:44;6.50;99.90
7970;DHT22;4030;52.362;9.206;2023-12-14T06:07:10;6.50;99.90
7970;DHT22;4030;52.362;9.206;2023-12-14T06:09:36;6.50;99.90
7970;DHT22;4030;52.362;9.206;2023-12-14T06:12:03;6.40;99.90
7970;DHT22;4030;52.362;9.206;2023-12-14T06:14:29;6.50;99.90
7970;DHT22;4030;52.362;9.206;2023-12-14T06:16:55;6.50;99.90
7970;DHT22;4030;52.362;9.206;2023-12-14T06:19:21;6.40;99.90
7970;DHT22;4030;52.362;9.206;2023-12-14T06:21:47;6.40;99.90
7970;DHT22;4030;52.362;9.206;2023-12-14T06:24:13;6.40;99.90
7970;DHT22;4030;52.362;9.206;2023-12-14T06:26:42;6.40;99.90
7970;DHT22;4030;52.362;9.206;2023-12-14T06:29:09;6.40;99.90
7970;DHT22;4030;52.362;9.206;2023-12-14T06:31:36;6.40;99.90
7970;DHT22;4030;52.362;9.206;2023-12-14T06:34:02;6.40;99.90
7970;DHT22;4030;52.362;9.206;2023-12-14T06:36:30;6.40;99.90
7970;DHT22;4030;52.362;9.206;2023-12-14T06:38:57;6.40;99.90
7970;DHT22;4030;52.362;9.206;2023-12-14T06:41:24;6.40;99.90
7970;DHT22;4030;52.362;9.206;2023-12-14T06:43:51;6.40;99.90
7970;DHT22;4030;52.362;9.206;2023-12-14T06:46:17;6.40;99.90
7970;DHT22;4030;52.362;9.206;2023-12-14T06:48:43;6.40;99.90
7970;DHT22;4030;52.362;9.206;2023-12-14T06:51:09;6.40;99.90
7970;DHT22;4030;52.362;9.206;2023-12-14T06:53:35;6.40;99.90
7970;DHT22;4030;52.362;9.206;2023-12-14T06:56:03;6.40;99.90
7970;DHT22;4030;52.362;9.206;2023-12-14T06:58:29;6.40;99.90
7970;DHT22;4030;52.362;9.206;2023-12-14T07:00:55;6.40;99.90
7970;DHT22;4030;52.362;9.206;2023-12-14T07:03:20;6.40;99.90
7970;DHT22;4030;52.362;9.206;2023-12-14T07:05:46;6.40;99.90
7970;DHT22;4030;52.362;9.206;2023-12-14T07:08:11;6.40;99.90
7970;DHT22;4030;52.362;9.206;2023-12-14T07:10:37;6.40;99.90
7970;DHT22;4030;52.362;9.206;2023-12-14T07:13:03;6.40;99.90
7970;DHT22;4030;52.362;9.206;2023-12-14T07:15:29;6.40;99.90
7970;DHT22;4030;52.362;9.206;2023-12-14T07:17:55;6.40;99.90
7970;DHT22;4030;52.362;9.206;2023-12-14T07:20:20;6.40;99.90
7970;DHT22;4030;52.362;9.206;2023-12-14T07:22:47;6.40;99.90
7970;DHT22;4030;52.362;9.206;2023-12-14T07:25:12;6.40;99.90
7970;DHT22;4030;52.362;9.206;2023-12-14T07:27:38;6.40;99.90
7970;DHT22;4030;52.362;9.206;2023-12-14T07:30:04;6.40;99.90
7970;DHT22;4030;52.362;9.206;2023-12-14T07:32:30;6.40;99.90
7970;DHT22;4030;52.362;9.206;2023-12-14T07:34:56;6.40;99.90
7970;DHT22;4030;52.362;9.206;2023-12-14T07:37:22;6.40;99.90
7970;DHT22;4030;52.362;9.206;2023-12-14T07:39:47;6.40;99.90
7970;DHT22;4030;52.362;9.206;2023-12-14T07:42:13;6.40;99.90
7970;DHT22;4030;52.362;9.206;2023-12-14T07:44:44;6.40;99.90
7970;DHT22;4030;52.362;9.206;2023-12-14T07:47:10;6.30;99.90
7970;DHT22;4030;52.362;9.206;2023-12-14T07:49:36;6.40;99.90
7970;DHT22;4030;52.362;9.206;2023-12-14T07:52:02;6.40;99.90
7970;DHT22;4030;52.362;9.206;2023-12-14T07:54:27;6.40;99.90
7970;DHT22;4030;52.362;9.206;2023-12-14T07:56:54;6.40;99.90
7970;DHT22;4030;52.362;9.206;2023-12-14T07:59:19;6.40;99.90
7970;DHT22;4030;52.362;9.206;2023-12-14T08:01:46;6.40;99.90
7970;DHT22;4030;52.362;9.206;2023-12-14T08:04:12;6.40;99.90
7970;DHT22;4030;52.362;9.206;2023-12-14T08:06:38;6.40;99.90
7970;DHT22;4030;52.362;9.206;2023-12-14T08:09:04;6.40;99.90
7970;DHT22;4030;52.362;9.206;2023-12-14T08:11:31;6.40;99.90
7970;DHT22;4030;52.362;9.206;2023-12-14T08:13:57;6.40;99.90
7970;DHT22;4030;52.362;9.206;2023-12-14T08:16:23;6.40;99.90
7970;DHT22;4030;52.362;9.206;2023-12-14T08:18:49;6.40;99.90
7970;DHT22;4030;52.362;9.206;2023-12-14T08:21:15;6.40;99.90
7970;DHT22;4030;52.362;9.206;2023-12-14T08:23:42;6.40;99.90
7970;DHT22;4030;52.362;9.206;2023-12-14T08:26:08;6.40;99.90
7970;DHT22;4030;52.362;9.206;2023-12-14T08:28:35;6.40;99.90
7970;DHT22;4030;52.362;9.206;2023-12-14T08:31:01;6.40;99.90
7970;DHT22;4030;52.362;9.206;2023-12-14T08:33:28;6.40;99.90
7970;DHT22;4030;52.362;9.206;2023-12-14T08:35:55;6.40;99.90
7970;DHT22;4030;52.362;9.206;2023-12-14T08:38:21;6.40;99.90
7970;DHT22;4030;52.362;9.206;2023-12-14T08:40:47;6.40;99.90
7970;DHT22;4030;52.362;9.206;2023-12-14T08:43:12;6.40;99.90
7970;DHT22;4030;52.362;9.206;2023-12-14T08:45:38;6.40;99.90
7970;DHT22;4030;52.362;9.206;2023-12-14T08:48:04;6.40;99.90
7970;DHT22;4030;52.362;9.206;2023-12-14T08:50:30;6.40;99.90
7970;DHT22;4030;52.362;9.206;2023-12-14T08:52:56;6.40;99.90
7970;DHT22;4030;52.362;9.206;2023-12-14T08:55:24;6.40;99.90
7970;DHT22;4030;52.362;9.206;2023-12-14T08:57:50;6.40;99.90
7970;DHT22;4030;52.362;9.206;2023-12-14T09:00:16;6.40;99.90
7970;DHT22;4030;52.362;9.206;2023-12-14T09:02:45;6.40;99.90
7970;DHT22;4030;52.362;9.206;2023-12-14T09:05:14;6.40;99.90
7970;DHT22;4030;52.362;9.206;2023-12-14T09:07:42;6.40;99.90
7970;DHT22;4030;52.362;9.206;2023-12-14T09:10:08;6.40;99.90
7970;DHT22;4030;52.362;9.206;2023-12-14T09:12:34;6.50;99.90
7970;DHT22;4030;52.362;9.206;2023-12-14T09:15:00;6.50;99.90
7970;DHT22;4030;52.362;9.206;2023-12-14T09:17:27;6.50;99.90
7970;DHT22;4030;52.362;9.206;2023-12-14T09:20:01;6.50;99.90
7970;DHT22;4030;52.362;9.206;2023-12-14T09:22:27;6.50;99.90
7970;DHT22;4030;52.362;9.206;2023-12-14T09:24:53;6.50;99.90
7970;DHT22;4030;52.362;9.206;2023-12-14T09:27:18;6.50;99.90
7970;DHT22;4030;52.362;9.206;2023-12-14T09:29:44;6.50;99.90
7970;DHT22;4030;52.362;9.206;2023-12-14T09:32:10;6.50;99.90
7970;DHT22;4030;52.362;9.206;2023-12-14T09:34:36;6.50;99.90
7970;DHT22;4030;52.362;9.206;2023-12-14T09:37:01;6.10;99.90
7970;DHT22;4030;52.362;9.206;2023-12-14T09:39:27;6.50;99.90
7970;DHT22;4030;52.362;9.206;2023-12-14T09:42:02;6.50;99.90
7970;DHT22;4030;52.362;9.206;2023-12-14T09:44:30;6.60;99.90
7970;DHT22;4030;52.362;9.206;2023-12-14T09:46:57;6.50;99.90
7970;DHT22;4030;52.362;9.206;2023-12-14T09:49:29;6.60;99.90
7970;DHT22;4030;52.362;9.206;2023-12-14T09:51:56;6.60;99.90
7970;DHT22;4030;52.362;9.206;2023-12-14T09:54:22;6.60;99.90
7970;DHT22;4030;52.362;9.206;2023-12-14T09:56:49;6.60;99.90
7970;DHT22;4030;52.362;9.206;2023-12-14T09:59:15;6.70;99.90
7970;DHT22;4030;52.362;9.206;2023-12-14T10:01:42;6.70;99.90
7970;DHT22;4030;52.362;9.206;2023-12-14T10:04:09;6.70;99.90
7970;DHT22;4030;52.362;9.206;2023-12-14T10:06:37;6.70;99.90
7970;DHT22;4030;52.362;9.206;2023-12-14T10:09:03;6.70;99.90
7970;DHT22;4030;52.362;9.206;2023-12-14T10:11:30;6.80;99.90
7970;DHT22;4030;52.362;9.206;2023-12-14T10:13:55;6.80;99.90
7970;DHT22;4030;52.362;9.206;2023-12-14T10:16:32;6.80;99.90
7970;DHT22;4030;52.362;9.206;2023-12-14T10:18:59;6.80;99.90
7970;DHT22;4030;52.362;9.206;2023-12-14T10:21:28;6.80;99.90
7970;DHT22;4030;52.362;9.206;2023-12-14T10:23:57;6.80;99.90
7970;DHT22;4030;52.362;9.206;2023-12-14T10:28:51;6.90;99.90
7970;DHT22;4030;52.362;9.206;2023-12-14T10:31:20;6.80;99.90
7970;DHT22;4030;52.362;9.206;2023-12-14T10:33:47;6.80;99.90
7970;DHT22;4030;52.362;9.206;2023-12-14T10:36:13;6.90;99.90
7970;DHT22;4030;52.362;9.206;2023-12-14T10:38:40;6.90;99.90
7970;DHT22;4030;52.362;9.206;2023-12-14T10:41:09;6.90;99.90
7970;DHT22;4030;52.362;9.206;2023-12-14T10:43:36;6.90;99.90
7970;DHT22;4030;52.362;9.206;2023-12-14T10:46:05;6.90;99.90
7970;DHT22;4030;52.362;9.206;2023-12-14T10:48:31;6.90;99.90
7970;DHT22;4030;52.362;9.206;2023-12-14T10:50:58;6.90;99.90
7970;DHT22;4030;52.362;9.206;2023-12-14T10:53:27;6.90;99.90
7970;DHT22;4030;52.362;9.206;2023-12-14T10:55:54;7.00;99.90
7970;DHT22;4030;52.362;9.206;2023-12-14T10:58:20;7.00;99.90
7970;DHT22;4030;52.362;9.206;2023-12-14T11:00:59;7.00;99.90
7970;DHT22;4030;52.362;9.206;2023-12-14T11:03:33;7.10;99.90
7970;DHT22;4030;52.362;9.206;2023-12-14T11:06:00;7.10;99.90
7970;DHT22;4030;52.362;9.206;2023-12-14T11:08:26;7.10;99.90
7970;DHT22;4030;52.362;9.206;2023-12-14T11:11:03;7.10;99.90
7970;DHT22;4030;52.362;9.206;2023-12-14T11:13:36;7.10;99.90
7970;DHT22;4030;52.362;9.206;2023-12-14T11:16:04;7.10;99.90
7970;DHT22;4030;52.362;9.206;2023-12-14T11:18:29;7.10;99.90
7970;DHT22;4030;52.362;9.206;2023-12-14T11:21:00;7.10;99.90
7970;DHT22;4030;52.362;9.206;2023-12-14T11:23:29;7.20;99.90
7970;DHT22;4030;52.362;9.206;2023-12-14T11:25:58;7.20;99.90
7970;DHT22;4030;52.362;9.206;2023-12-14T11:28:39;7.20;99.90
7970;DHT22;4030;52.362;9.206;2023-12-14T11:31:11;7.20;99.90
7970;DHT22;4030;52.362;9.206;2023-12-14T11:33:37;7.10;99.90
7970;DHT22;4030;52.362;9.206;2023-12-14T11:36:03;7.10;99.90
7970;DHT22;4030;52.362;9.206;2023-12-14T11:38:30;7.10;99.90
7970;DHT22;4030;52.362;9.206;2023-12-14T11:40:58;7.10;99.90
7970;DHT22;4030;52.362;9.206;2023-12-14T11:43:24;7.20;99.90
7970;DHT22;4030;52.362;9.206;2023-12-14T11:45:52;7.20;99.90
7970;DHT22;4030;52.362;9.206;2023-12-14T11:48:18;7.20;99.90
7970;DHT22;4030;52.362;9.206;2023-12-14T11:50:46;7.30;99.90
7970;DHT22;4030;52.362;9.206;2023-12-14T11:53:12;7.30;99.90
7970;DHT22;4030;52.362;9.206;2023-12-14T11:55:40;7.40;99.90
7970;DHT22;4030;52.362;9.206;2023-12-14T11:58:07;7.40;99.90
7970;DHT22;4030;52.362;9.206;2023-12-14T12:00:34;7.50;99.90
7970;DHT22;4030;52.362;9.206;2023-12-14T12:03:19;7.50;99.90
7970;DHT22;4030;52.362;9.206;2023-12-14T12:05:50;7.50;99.90
7970;DHT22;4030;52.362;9.206;2023-12-14T12:08:19;7.50;99.90
7970;DHT22;4030;52.362;9.206;2023-12-14T12:10:46;7.50;99.90
7970;DHT22;4030;52.362;9.206;2023-12-14T12:13:18;7.50;99.90
7970;DHT22;4030;52.362;9.206;2023-12-14T12:15:45;7.50;99.90
7970;DHT22;4030;52.362;9.206;2023-12-14T12:18:13;7.50;99.90
7970;DHT22;4030;52.362;9.206;2023-12-14T12:20:40;7.50;99.90
7970;DHT22;4030;52.362;9.206;2023-12-14T12:23:06;7.50;99.90
7970;DHT22;4030;52.362;9.206;2023-12-14T12:25:32;7.50;99.90
7970;DHT22;4030;52.362;9.206;2023-12-14T12:28:00;7.50;99.90
7970;DHT22;4030;52.362;9.206;2023-12-14T12:30:27;7.50;99.90
7970;DHT22;4030;52.362;9.206;2023-12-14T12:32:53;7.40;99.90
7970;DHT22;4030;52.362;9.206;2023-12-14T12:35:21;7.40;99.90
7970;DHT22;4030;52.362;9.206;2023-12-14T12:37:47;7.40;99.90
7970;DHT22;4030;52.362;9.206;2023-12-14T12:40:19;7.40;99.90
7970;DHT22;4030;52.362;9.206;2023-12-14T12:42:46;7.50;99.90
7970;DHT22;4030;52.362;9.206;2023-12-14T12:45:14;7.50;99.90
7970;DHT22;4030;52.362;9.206;2023-12-14T12:47:41;7.50;99.90
7970;DHT22;4030;52.362;9.206;2023-12-14T12:50:07;7.50;99.90
7970;DHT22;4030;52.362;9.206;2023-12-14T12:52:33;7.60;99.90
7970;DHT22;4030;52.362;9.206;2023-12-14T12:54:59;7.60;99.90
7970;DHT22;4030;52.362;9.206;2023-12-14T12:57:25;7.70;99.90
7970;DHT22;4030;52.362;9.206;2023-12-14T12:59:51;7.60;99.90
7970;DHT22;4030;52.362;9.206;2023-12-14T13:02:17;7.60;99.90
7970;DHT22;4030;52.362;9.206;2023-12-14T13:04:43;7.60;99.90
7970;DHT22;4030;52.362;9.206;2023-12-14T13:07:09;7.60;99.90
7970;DHT22;4030;52.362;9.206;2023-12-14T13:09:34;7.60;99.90
7970;DHT22;4030;52.362;9.206;2023-12-14T13:12:00;7.60;99.90
7970;DHT22;4030;52.362;9.206;2023-12-14T13:14:26;7.60;99.90
7970;DHT22;4030;52.362;9.206;2023-12-14T13:16:51;7.60;99.90
7970;DHT22;4030;52.362;9.206;2023-12-14T13:19:17;7.50;99.90
7970;DHT22;4030;52.362;9.206;2023-12-14T13:21:43;7.50;99.90
7970;DHT22;4030;52.362;9.206;2023-12-14T13:24:08;7.50;99.90
7970;DHT22;4030;52.362;9.206;2023-12-14T13:26:34;7.50;99.90
7970;DHT22;4030;52.362;9.206;2023-12-14T13:29:00;7.50;99.90
7970;DHT22;4030;52.362;9.206;2023-12-14T13:31:25;7.50;99.90
7970;DHT22;4030;52.362;9.206;2023-12-14T13:33:51;7.40;99.90
7970;DHT22;4030;52.362;9.206;2023-12-14T13:36:18;7.50;99.90
7970;DHT22;4030;52.362;9.206;2023-12-14T13:38:44;7.40;99.90
7970;DHT22;4030;52.362;9.206;2023-12-14T13:41:10;7.50;99.90
7970;DHT22;4030;52.362;9.206;2023-12-14T13:43:36;7.50;99.90
7970;DHT22;4030;52.362;9.206;2023-12-14T13:46:02;7.60;99.90
7970;DHT22;4030;52.362;9.206;2023-12-14T13:48:28;7.60;99.90
7970;DHT22;4030;52.362;9.206;2023-12-14T13:50:54;7.70;99.90
7970;DHT22;4030;52.362;9.206;2023-12-14T13:53:21;7.70;99.90
7970;DHT22;4030;52.362;9.206;2023-12-14T13:55:48;7.70;99.90
7970;DHT22;4030;52.362;9.206;2023-12-14T13:58:17;7.70;99.90
7970;DHT22;4030;52.362;9.206;2023-12-14T14:00:43;7.80;99.90
7970;DHT22;4030;52.362;9.206;2023-12-14T14:03:09;7.70;99.90
7970;DHT22;4030;52.362;9.206;2023-12-14T14:05:35;7.70;99.90
7970;DHT22;4030;52.362;9.206;2023-12-14T14:08:01;7.70;99.90
7970;DHT22;4030;52.362;9.206;2023-12-14T14:10:27;7.60;99.90
7970;DHT22;4030;52.362;9.206;2023-12-14T14:12:53;7.60;99.90
7970;DHT22;4030;52.362;9.206;2023-12-14T14:15:19;7.50;99.90
7970;DHT22;4030;52.362;9.206;2023-12-14T14:17:47;7.50;99.90
7970;DHT22;4030;52.362;9.206;2023-12-14T14:20:17;7.50;99.90
7970;DHT22;4030;52.362;9.206;2023-12-14T14:22:42;7.40;99.90
7970;DHT22;4030;52.362;9.206;2023-12-14T14:25:09;7.40;99.90
7970;DHT22;4030;52.362;9.206;2023-12-14T14:27:36;7.40;99.90
7970;DHT22;4030;52.362;9.206;2023-12-14T14:30:02;7.40;99.90
7970;DHT22;4030;52.362;9.206;2023-12-14T14:32:28;7.40;99.90
7970;DHT22;4030;52.362;9.206;2023-12-14T14:34:57;7.40;99.90
7970;DHT22;4030;52.362;9.206;2023-12-14T14:37:24;7.30;99.90
7970;DHT22;4030;52.362;9.206;2023-12-14T14:39:50;7.30;99.90
7970;DHT22;4030;52.362;9.206;2023-12-14T14:42:15;7.30;99.90
7970;DHT22;4030;52.362;9.206;2023-12-14T14:44:41;7.20;99.90
7970;DHT22;4030;52.362;9.206;2023-12-14T14:47:07;7.20;99.90
7970;DHT22;4030;52.362;9.206;2023-12-14T14:49:33;7.20;99.90
7970;DHT22;4030;52.362;9.206;2023-12-14T14:51:58;7.10;99.90
7970;DHT22;4030;52.362;9.206;2023-12-14T14:54:24;7.10;99.90
7970;DHT22;4030;52.362;9.206;2023-12-14T14:56:50;7.10;99.90
7970;DHT22;4030;52.362;9.206;2023-12-14T14:59:16;7.00;99.90
7970;DHT22;4030;52.362;9.206;2023-12-14T15:01:42;7.00;99.90
7970;DHT22;4030;52.362;9.206;2023-12-14T15:04:08;7.00;99.90
7970;DHT22;4030;52.362;9.206;2023-12-14T15:06:33;7.00;99.90
7970;DHT22;4030;52.362;9.206;2023-12-14T15:09:00;7.00;99.90
7970;DHT22;4030;52.362;9.206;2023-12-14T15:11:26;6.90;99.90
7970;DHT22;4030;52.362;9.206;2023-12-14T15:13:51;6.90;99.90
7970;DHT22;4030;52.362;9.206;2023-12-14T15:16:17;6.90;99.90
7970;DHT22;4030;52.362;9.206;2023-12-14T15:18:50;6.90;99.90
7970;DHT22;4030;52.362;9.206;2023-12-14T15:21:16;6.90;99.90
7970;DHT22;4030;52.362;9.206;2023-12-14T15:23:42;6.90;99.90
7970;DHT22;4030;52.362;9.206;2023-12-14T15:26:09;6.80;99.90
7970;DHT22;4030;52.362;9.206;2023-12-14T15:28:36;6.80;99.90
7970;DHT22;4030;52.362;9.206;2023-12-14T15:31:02;6.80;99.90
7970;DHT22;4030;52.362;9.206;2023-12-14T15:33:28;6.80;99.90
7970;DHT22;4030;52.362;9.206;2023-12-14T15:35:54;6.80;99.90
7970;DHT22;4030;52.362;9.206;2023-12-14T15:38:19;6.70;99.90
7970;DHT22;4030;52.362;9.206;2023-12-14T15:40:45;6.70;99.90
7970;DHT22;4030;52.362;9.206;2023-12-14T15:43:11;6.70;99.90
7970;DHT22;4030;52.362;9.206;2023-12-14T15:45:36;6.70;99.90
7970;DHT22;4030;52.362;9.206;2023-12-14T15:48:02;6.70;99.90
7970;DHT22;4030;52.362;9.206;2023-12-14T15:50:28;6.70;99.90
7970;DHT22;4030;52.362;9.206;2023-12-14T15:52:54;6.60;99.90
7970;DHT22;4030;52.362;9.206;2023-12-14T15:55:20;6.60;99.90
7970;DHT22;4030;52.362;9.206;2023-12-14T15:57:48;6.60;99.90
7970;DHT22;4030;52.362;9.206;2023-12-14T16:00:14;6.60;99.90
7970;DHT22;4030;52.362;9.206;2023-12-14T16:02:41;6.60;99.90
7970;DHT22;4030;52.362;9.206;2023-12-14T16:05:08;6.50;99.90
7970;DHT22;4030;52.362;9.206;2023-12-14T16:07:34;6.50;99.90
7970;DHT22;4030;52.362;9.206;2023-12-14T16:10:00;6.50;99.90
7970;DHT22;4030;52.362;9.206;2023-12-14T16:12:26;6.50;99.90
7970;DHT22;4030;52.362;9.206;2023-12-14T16:14:52;6.50;99.90
7970;DHT22;4030;52.362;9.206;2023-12-14T16:17:21;6.50;99.90